createdAt,value
2023-04-06T00:01:01.341Z,20.33
2023-04-06T00:03:28.349Z,19.83
2023-04-06T00:05:55.476Z,20.17
2023-04-06T00:08:24.482Z,17.15
2023-04-06T00:10:51.374Z,17.65
2023-04-06T00:13:18.272Z,17.20
2023-04-06T00:15:45.201Z,16.42
2023-04-06T00:18:12.204Z,14.98
2023-04-06T00:20:39.341Z,13.88
2023-04-06T00:23:06.332Z,16.20
2023-04-06T00:25:33.187Z,17.95
2023-04-06T00:28:00.223Z,16.52
2023-04-06T00:30:27.096Z,18.45
2023-04-06T00:32:54.020Z,17.50
2023-04-06T00:35:21.390Z,16.73
2023-04-06T00:37:49.161Z,17.45
2023-04-06T00:40:16.844Z,17.77
2023-04-06T00:42:43.793Z,17.20
2023-04-06T00:45:11.782Z,19.20
2023-04-06T00:47:38.860Z,21.40
2023-04-06T00:50:06.630Z,22.33
2023-04-06T00:52:35.498Z,23.10
2023-04-06T00:55:03.769Z,21.92
2023-04-06T00:57:31.925Z,20.55
2023-04-06T00:59:58.883Z,19.95
2023-04-06T01:02:26.788Z,18.67
2023-04-06T01:04:55.390Z,17.95
2023-04-06T01:07:22.485Z,18.63
2023-04-06T01:09:49.390Z,20.17
2023-04-06T01:12:16.324Z,17.02
2023-04-06T01:14:43.262Z,16.13
2023-04-06T01:17:10.259Z,16.52
2023-04-06T01:19:38.012Z,16.58
2023-04-06T01:22:04.947Z,15.45
2023-04-06T01:24:31.889Z,15.90
2023-04-06T01:26:58.775Z,15.27
2023-04-06T01:29:26.106Z,15.10
2023-04-06T01:31:53.013Z,14.95
2023-04-06T01:34:19.896Z,14.90
2023-04-06T01:36:46.760Z,13.77
2023-04-06T01:39:13.674Z,13.63
2023-04-06T01:41:40.798Z,13.10
2023-04-06T01:44:07.715Z,13.95
2023-04-06T01:46:34.593Z,13.77
2023-04-06T01:49:01.435Z,13.68
2023-04-06T01:51:28.389Z,16.00
2023-04-06T01:53:56.169Z,14.68
2023-04-06T01:56:23.098Z,15.20
2023-04-06T01:58:50.032Z,15.18
2023-04-06T02:01:17.061Z,17.27
2023-04-06T02:03:44.047Z,17.92
2023-04-06T02:06:11.056Z,18.75
2023-04-06T02:08:38.069Z,17.85
2023-04-06T02:11:05.237Z,17.50
2023-04-06T02:13:32.149Z,17.83
2023-04-06T02:15:59.200Z,16.60
2023-04-06T02:18:26.180Z,18.02
2023-04-06T02:20:53.038Z,17.85
2023-04-06T02:23:19.965Z,17.15
2023-04-06T02:25:46.955Z,17.35
2023-04-06T02:28:13.807Z,17.50
2023-04-06T02:30:40.890Z,15.35
2023-04-06T02:33:07.842Z,16.85
2023-04-06T02:35:34.766Z,15.50
2023-04-06T02:38:01.697Z,15.45
2023-04-06T02:40:28.579Z,15.07
2023-04-06T02:42:55.452Z,15.43
2023-04-06T02:45:22.396Z,15.23
2023-04-06T02:47:49.305Z,15.73
2023-04-06T02:50:16.502Z,15.32
2023-04-06T02:52:43.545Z,15.13
2023-04-06T02:55:10.497Z,15.63
2023-04-06T02:57:37.364Z,17.30
2023-04-06T03:00:04.932Z,16.25
2023-04-06T03:02:31.909Z,14.93
2023-04-06T03:04:58.892Z,15.90
2023-04-06T03:07:25.735Z,16.83
2023-04-06T03:09:52.580Z,16.05
2023-04-06T03:12:19.455Z,17.25
2023-04-06T03:14:46.500Z,16.63
2023-04-06T03:17:13.560Z,17.67
2023-04-06T03:19:40.572Z,18.17
2023-04-06T03:22:07.418Z,15.75
2023-04-06T03:24:34.443Z,16.05
2023-04-06T03:27:01.425Z,16.23
2023-04-06T03:29:28.396Z,15.27
2023-04-06T03:31:55.528Z,15.68
2023-04-06T03:34:22.389Z,16.10
2023-04-06T03:36:59.530Z,15.93
2023-04-06T03:39:33.953Z,16.55
2023-04-06T03:42:00.834Z,16.02
2023-04-06T03:44:27.655Z,18.20
2023-04-06T03:46:54.653Z,19.23
2023-04-06T03:49:21.668Z,18.77
2023-04-06T03:51:48.611Z,19.17
2023-04-06T03:54:15.812Z,22.20
2023-04-06T03:56:42.889Z,18.33
2023-04-06T03:59:10.159Z,17.40
2023-04-06T04:01:37.379Z,17.63
2023-04-06T04:04:04.340Z,17.63
2023-04-06T04:06:31.220Z,16.27
2023-04-06T04:08:58.120Z,17.48
2023-04-06T04:11:24.995Z,14.93
2023-04-06T04:13:51.838Z,17.08
2023-04-06T04:16:18.700Z,15.95
2023-04-06T04:18:46.430Z,15.30
2023-04-06T04:21:13.534Z,15.70
2023-04-06T04:23:40.435Z,16.77
2023-04-06T04:26:07.302Z,16.35
2023-04-06T04:28:34.171Z,13.32
2023-04-06T04:31:01.416Z,13.23
2023-04-06T04:33:28.385Z,12.85
2023-04-06T04:35:55.508Z,12.55
2023-04-06T04:38:22.388Z,12.82
2023-04-06T04:40:49.281Z,12.82
2023-04-06T04:43:16.144Z,12.60
2023-04-06T04:45:43.032Z,12.45
2023-04-06T04:48:10.353Z,11.90
2023-04-06T04:50:37.287Z,13.35
2023-04-06T04:53:06.946Z,14.07
2023-04-06T04:55:33.894Z,14.02
2023-04-06T04:58:00.766Z,14.73
2023-04-06T05:00:28.875Z,13.25
2023-04-06T05:02:55.843Z,11.95
2023-04-06T05:05:22.822Z,11.20
2023-04-06T05:07:49.717Z,11.07
2023-04-06T05:10:16.851Z,14.43
2023-04-06T05:12:43.872Z,14.00
2023-04-06T05:15:11.314Z,11.80
2023-04-06T05:17:38.511Z,12.40
2023-04-06T05:20:06.972Z,13.13
2023-04-06T05:22:33.853Z,13.30
2023-04-06T05:25:00.976Z,13.75
2023-04-06T05:27:27.846Z,12.80
2023-04-06T05:29:57.378Z,13.98
2023-04-06T05:32:25.750Z,13.25
2023-04-06T05:34:52.861Z,15.20
2023-04-06T05:37:19.864Z,14.90
2023-04-06T05:39:46.763Z,21.98
2023-04-06T05:42:13.690Z,24.17
2023-04-06T05:44:41.104Z,16.13
2023-04-06T05:47:08.011Z,18.05
2023-04-06T05:49:35.742Z,15.32
2023-04-06T05:52:03.005Z,14.48
2023-04-06T05:54:29.883Z,19.85
2023-04-06T05:56:56.832Z,30.80
2023-04-06T05:59:24.852Z,20.08
2023-04-06T06:01:52.314Z,14.40
2023-04-06T06:04:19.266Z,12.43
2023-04-06T06:06:46.187Z,13.57
2023-04-06T06:09:13.125Z,15.23
2023-04-06T06:11:40.087Z,13.95
2023-04-06T06:14:06.986Z,15.07
2023-04-06T06:16:34.757Z,16.08
2023-04-06T06:19:01.874Z,20.83
2023-04-06T06:21:28.770Z,18.95
2023-04-06T06:23:55.860Z,17.77
2023-04-06T06:26:22.878Z,17.50
2023-04-06T06:28:49.865Z,18.35
2023-04-06T06:31:17.367Z,16.80
2023-04-06T06:33:44.434Z,14.43
2023-04-06T06:36:11.386Z,11.20
2023-04-06T06:38:39.207Z,11.85
2023-04-06T06:41:06.562Z,11.32
2023-04-06T06:43:33.444Z,9.55
2023-04-06T06:46:00.589Z,10.00
2023-04-06T06:48:27.752Z,10.95
2023-04-06T06:50:54.834Z,10.25
2023-04-06T06:53:22.212Z,9.65
2023-04-06T06:55:51.760Z,8.52
2023-04-06T06:58:21.910Z,7.57
2023-04-06T07:00:49.038Z,7.13
2023-04-06T07:03:15.910Z,7.00
2023-04-06T07:05:54.033Z,5.85
2023-04-06T07:08:23.411Z,4.63
2023-04-06T07:10:59.219Z,4.75
2023-04-06T07:13:27.828Z,4.50
2023-04-06T07:15:54.836Z,5.15
2023-04-06T07:18:23.966Z,5.15
2023-04-06T07:20:50.898Z,5.00
2023-04-06T07:23:17.881Z,5.03
2023-04-06T07:25:44.789Z,4.53
2023-04-06T07:28:11.682Z,4.25
2023-04-06T07:30:39.561Z,4.25
2023-04-06T07:33:07.120Z,3.83
2023-04-06T07:35:36.004Z,4.05
2023-04-06T07:38:03.102Z,4.03
2023-04-06T07:40:30.046Z,3.70
2023-04-06T07:42:58.114Z,4.00
2023-04-06T07:45:25.212Z,4.40
2023-04-06T07:47:52.336Z,4.20
2023-04-06T07:50:19.416Z,4.00
2023-04-06T07:52:46.388Z,3.83
2023-04-06T07:55:13.473Z,3.92
2023-04-06T07:57:40.521Z,3.65
2023-04-06T08:00:10.366Z,4.05
2023-04-06T08:02:37.427Z,4.18
2023-04-06T08:05:04.844Z,4.90
2023-04-06T08:07:31.909Z,4.53
2023-04-06T08:09:58.870Z,4.63
2023-04-06T08:12:25.832Z,5.13
2023-04-06T08:14:52.792Z,5.60
2023-04-06T08:17:19.948Z,5.35
2023-04-06T08:19:46.898Z,5.07
2023-04-06T08:22:13.813Z,5.13
2023-04-06T08:24:40.964Z,5.10
2023-04-06T08:27:08.682Z,4.80
2023-04-06T08:29:35.917Z,4.85
2023-04-06T08:32:06.000Z,4.20
2023-04-06T08:34:34.463Z,5.03
2023-04-06T08:37:01.793Z,5.13
2023-04-06T08:39:31.654Z,4.30
2023-04-06T08:42:00.812Z,5.05
2023-04-06T08:44:28.211Z,4.65
2023-04-06T08:46:56.112Z,4.53
2023-04-06T08:49:23.811Z,5.65
2023-04-06T08:51:51.769Z,5.63
2023-04-06T08:54:19.054Z,7.18
2023-04-06T08:56:46.806Z,6.22
2023-04-06T08:59:14.743Z,4.93
2023-04-06T09:01:44.054Z,4.63
2023-04-06T09:04:13.560Z,4.60
2023-04-06T09:06:41.700Z,8.73
2023-04-06T09:09:09.540Z,5.80
2023-04-06T09:11:53.397Z,5.50
2023-04-06T09:14:38.078Z,6.60
2023-04-06T09:17:06.477Z,5.43
2023-04-06T09:19:33.717Z,4.93
2023-04-06T09:22:08.023Z,5.43
2023-04-06T09:25:01.512Z,6.80
2023-04-06T09:27:33.860Z,11.70
2023-04-06T09:30:19.414Z,6.53
2023-04-06T09:32:58.404Z,7.10
2023-04-06T09:35:27.787Z,9.98
2023-04-06T09:37:55.327Z,7.53
2023-04-06T09:40:24.385Z,5.60
2023-04-06T09:42:53.712Z,5.60
2023-04-06T09:45:21.926Z,7.05
2023-04-06T09:47:52.538Z,6.38
2023-04-06T09:50:20.908Z,8.13
2023-04-06T09:52:55.498Z,8.82
2023-04-06T09:55:35.052Z,8.50
2023-04-06T09:58:14.018Z,10.15
2023-04-06T10:01:13.539Z,12.20
2023-04-06T10:03:56.082Z,5.03
2023-04-06T10:06:28.261Z,4.72
2023-04-06T10:08:57.718Z,4.77
2023-04-06T10:11:25.601Z,6.38
2023-04-06T10:13:52.484Z,5.22
2023-04-06T10:16:20.048Z,4.50
2023-04-06T10:18:57.705Z,4.47
2023-04-06T10:21:28.348Z,5.85
2023-04-06T10:24:11.838Z,6.20
2023-04-06T10:26:39.222Z,6.40
2023-04-06T10:29:09.281Z,6.50
2023-04-06T10:31:44.580Z,6.63
2023-04-06T10:34:11.602Z,6.70
2023-04-06T10:36:38.999Z,8.35
2023-04-06T10:39:07.874Z,5.47
2023-04-06T10:41:45.754Z,13.20
2023-04-06T10:44:25.897Z,4.63
2023-04-06T10:47:04.100Z,6.15
2023-04-06T10:49:31.151Z,6.40
2023-04-06T10:51:58.631Z,6.00
2023-04-06T10:54:28.833Z,7.30
2023-04-06T10:56:57.440Z,5.05
2023-04-06T10:59:26.026Z,7.22
2023-04-06T11:01:54.132Z,7.28
2023-04-06T11:04:22.068Z,7.97
2023-04-06T11:06:50.880Z,5.93
2023-04-06T11:09:37.655Z,6.10
2023-04-06T11:12:05.342Z,4.07
2023-04-06T11:14:32.240Z,6.63
2023-04-06T11:16:59.311Z,4.32
2023-04-06T11:19:26.597Z,5.03
2023-04-06T11:21:53.800Z,6.20
2023-04-06T11:24:24.231Z,6.15
2023-04-06T11:26:54.927Z,9.05
2023-04-06T11:29:25.952Z,4.75
2023-04-06T11:31:58.761Z,4.85
2023-04-06T11:34:29.426Z,4.78
2023-04-06T11:37:03.402Z,4.40
2023-04-06T11:39:31.314Z,5.28
2023-04-06T11:42:05.564Z,7.47
2023-04-06T11:44:41.487Z,7.80
2023-04-06T11:47:11.112Z,6.03
2023-04-06T11:49:40.971Z,4.47
2023-04-06T11:52:28.678Z,6.40
2023-04-06T11:54:57.941Z,5.00
2023-04-06T11:57:26.434Z,5.85
2023-04-06T11:59:53.948Z,4.95
2023-04-06T12:02:21.107Z,5.60
2023-04-06T12:04:48.564Z,4.78
2023-04-06T12:07:15.764Z,5.28
2023-04-06T12:09:44.134Z,5.13
2023-04-06T12:12:11.135Z,4.75
2023-04-06T12:14:38.363Z,4.82
2023-04-06T12:17:05.434Z,4.40
2023-04-06T12:19:32.873Z,4.20
2023-04-06T12:22:00.047Z,4.78
2023-04-06T12:24:27.007Z,4.80
2023-04-06T12:27:06.506Z,4.55
2023-04-06T12:29:36.792Z,3.85
2023-04-06T12:32:03.805Z,3.63
2023-04-06T12:34:31.185Z,3.60
2023-04-06T12:36:58.451Z,4.13
2023-04-06T12:39:31.926Z,4.22
2023-04-06T12:41:58.905Z,3.53
2023-04-06T12:44:27.139Z,3.90
2023-04-06T12:46:54.339Z,5.05
2023-04-06T12:49:21.317Z,3.83
2023-04-06T12:51:48.366Z,3.97
2023-04-06T12:54:15.287Z,3.90
2023-04-06T12:56:42.202Z,3.80
2023-04-06T12:59:10.529Z,4.30
2023-04-06T13:01:38.283Z,3.10
2023-04-06T13:04:05.284Z,3.20
2023-04-06T13:06:32.341Z,4.03
2023-04-06T13:09:01.850Z,3.70
2023-04-06T13:11:29.360Z,3.35
2023-04-06T13:13:56.358Z,3.00
2023-04-06T13:16:23.564Z,3.58
2023-04-06T13:18:51.233Z,3.47
2023-04-06T13:21:18.479Z,3.97
2023-04-06T13:23:46.079Z,3.60
2023-04-06T13:26:14.638Z,4.00
2023-04-06T13:28:42.413Z,3.70
2023-04-06T13:31:10.733Z,3.75
2023-04-06T13:33:39.489Z,3.50
2023-04-06T13:36:08.931Z,3.45
2023-04-06T13:38:36.105Z,3.55
2023-04-06T13:41:03.212Z,3.70
2023-04-06T13:43:30.462Z,3.78
2023-04-06T13:46:00.976Z,3.38
2023-04-06T13:48:28.097Z,4.97
2023-04-06T13:50:55.409Z,7.15
2023-04-06T13:53:22.795Z,5.88
2023-04-06T13:55:56.811Z,9.77
2023-04-06T13:58:24.560Z,7.63
2023-04-06T14:00:52.015Z,10.63
2023-04-06T14:03:19.960Z,4.70
2023-04-06T14:05:47.426Z,4.95
2023-04-06T14:08:17.470Z,9.15
2023-04-06T14:10:44.385Z,5.07
2023-04-06T14:13:11.479Z,5.55
2023-04-06T14:15:38.641Z,5.90
2023-04-06T14:18:05.714Z,6.18
2023-04-06T14:20:36.101Z,5.85
2023-04-06T14:23:03.735Z,9.77
2023-04-06T14:25:35.643Z,3.05
2023-04-06T14:28:02.991Z,3.60
2023-04-06T14:30:31.992Z,3.20
2023-04-06T14:32:59.363Z,2.28
2023-04-06T14:35:29.292Z,2.60
2023-04-06T14:37:59.122Z,3.55
2023-04-06T14:40:26.595Z,3.28
2023-04-06T14:42:56.160Z,2.53
2023-04-06T14:45:23.631Z,2.90
2023-04-06T14:47:51.489Z,3.83
2023-04-06T14:50:18.409Z,3.63
2023-04-06T14:52:47.260Z,2.50
2023-04-06T14:55:15.072Z,3.15
2023-04-06T14:57:41.973Z,3.65
2023-04-06T15:00:10.576Z,3.08
2023-04-06T15:02:38.154Z,3.20
2023-04-06T15:05:06.422Z,4.32
2023-04-06T15:07:33.353Z,3.80
2023-04-06T15:10:00.244Z,4.80
2023-04-06T15:12:27.194Z,4.00
2023-04-06T15:14:54.092Z,4.35
2023-04-06T15:17:21.217Z,4.40
2023-04-06T15:19:48.267Z,3.40
2023-04-06T15:22:15.288Z,3.00
2023-04-06T15:24:42.238Z,4.03
2023-04-06T15:27:09.177Z,5.97
2023-04-06T15:29:36.550Z,4.43
2023-04-06T15:32:03.714Z,3.90
2023-04-06T15:34:33.598Z,3.55
2023-04-06T15:37:04.923Z,5.97
2023-04-06T15:39:33.321Z,5.40
2023-04-06T15:42:01.141Z,5.30
2023-04-06T15:44:28.209Z,8.02
2023-04-06T15:46:55.723Z,5.80
2023-04-06T15:49:23.077Z,7.97
2023-04-06T15:51:52.037Z,9.13
2023-04-06T15:54:21.145Z,11.48
2023-04-06T15:56:50.625Z,10.45
2023-04-06T15:59:17.695Z,9.32
2023-04-06T16:01:46.552Z,7.65
2023-04-06T16:04:14.803Z,8.35
2023-04-06T16:06:41.922Z,14.05
2023-04-06T16:09:08.878Z,7.55
2023-04-06T16:11:37.000Z,6.47
2023-04-06T16:14:04.331Z,4.35
2023-04-06T16:16:31.395Z,6.22
2023-04-06T16:18:58.346Z,4.10
2023-04-06T16:21:27.328Z,7.72
2023-04-06T16:23:54.358Z,6.05
2023-04-06T16:26:22.399Z,5.00
2023-04-06T16:28:51.338Z,5.35
2023-04-06T16:31:24.146Z,4.80
2023-04-06T16:33:54.435Z,4.63
2023-04-06T16:36:25.376Z,4.15
2023-04-06T16:38:53.538Z,4.25
2023-04-06T16:41:21.652Z,4.13
2023-04-06T16:43:49.442Z,5.65
2023-04-06T16:46:17.405Z,5.07
2023-04-06T16:48:44.613Z,4.10
2023-04-06T16:51:11.621Z,4.50
2023-04-06T16:53:39.169Z,4.40
2023-04-06T16:58:34.565Z,39.78
2023-04-06T17:01:01.874Z,24.92
2023-04-06T17:03:30.746Z,6.55
2023-04-06T17:05:57.918Z,6.63
2023-04-06T17:08:25.036Z,5.90
2023-04-06T17:11:02.703Z,4.25
2023-04-06T17:13:30.958Z,5.53
2023-04-06T17:15:57.892Z,7.13
2023-04-06T17:18:24.809Z,5.45
2023-04-06T17:20:51.718Z,5.75
2023-04-06T17:23:18.686Z,5.25
2023-04-06T17:25:45.605Z,5.50
2023-04-06T17:28:12.516Z,5.60
2023-04-06T17:30:40.929Z,6.43
2023-04-06T17:33:08.004Z,7.88
2023-04-06T17:35:36.405Z,7.18
2023-04-06T17:38:03.299Z,21.35
2023-04-06T17:40:30.357Z,6.43
2023-04-06T17:42:57.529Z,7.00
2023-04-06T17:45:24.410Z,7.47
2023-04-06T17:47:51.333Z,6.28
2023-04-06T17:50:18.546Z,6.93
2023-04-06T17:55:17.603Z,10.40
2023-04-06T17:57:46.152Z,11.18
2023-04-06T18:00:15.734Z,22.63
2023-04-06T18:02:43.383Z,14.52
2023-04-06T18:05:10.839Z,10.05
2023-04-06T18:07:37.861Z,9.95
2023-04-06T18:10:05.457Z,14.27
2023-04-06T18:12:34.877Z,10.05
2023-04-06T18:15:01.854Z,9.15
2023-04-06T18:17:28.843Z,11.98
2023-04-06T18:19:56.216Z,13.65
2023-04-06T18:22:23.349Z,10.98
2023-04-06T18:24:50.411Z,8.40
2023-04-06T18:27:19.722Z,9.25
2023-04-06T18:29:47.560Z,10.02
2023-04-06T18:32:18.514Z,10.00
2023-04-06T18:34:45.588Z,8.40
2023-04-06T18:37:13.362Z,8.10
2023-04-06T18:39:43.814Z,9.77
2023-04-06T18:42:11.131Z,8.70
2023-04-06T18:44:38.273Z,8.63
2023-04-06T18:47:05.678Z,10.10
2023-04-06T18:49:33.456Z,13.98
2023-04-06T18:52:01.654Z,8.57
2023-04-06T18:54:28.840Z,8.25
2023-04-06T18:56:56.884Z,9.23
2023-04-06T18:59:24.375Z,12.18
2023-04-06T19:01:54.084Z,9.38
2023-04-06T19:04:21.878Z,10.05
2023-04-06T19:06:49.005Z,8.32
2023-04-06T19:09:18.228Z,8.13
2023-04-06T19:11:45.164Z,7.75
2023-04-06T19:14:12.110Z,7.30
2023-04-06T19:16:42.579Z,7.30
2023-04-06T19:19:09.844Z,7.38
2023-04-06T19:21:37.399Z,7.22
2023-04-06T19:24:04.647Z,7.55
2023-04-06T19:26:32.765Z,7.60
2023-04-06T19:28:59.786Z,7.00
2023-04-06T19:31:28.066Z,7.95
2023-04-06T19:33:55.320Z,6.40
2023-04-06T19:36:22.406Z,6.35
2023-04-06T19:38:49.360Z,6.10
2023-04-06T19:41:16.225Z,6.13
2023-04-06T19:43:43.165Z,6.68
2023-04-06T19:46:11.046Z,5.57
2023-04-06T19:48:37.984Z,5.70
2023-04-06T19:51:04.949Z,6.30
2023-04-06T19:53:32.097Z,5.57
2023-04-06T19:55:59.064Z,6.30
2023-04-06T19:58:26.007Z,6.05
2023-04-06T20:00:52.891Z,5.80
2023-04-06T20:03:19.966Z,6.35
2023-04-06T20:05:47.068Z,7.60
2023-04-06T20:08:14.302Z,6.75
2023-04-06T20:10:41.262Z,6.25
2023-04-06T20:13:08.298Z,6.57
2023-04-06T20:15:35.511Z,9.90
2023-04-06T20:18:02.409Z,7.03
2023-04-06T20:20:29.652Z,6.85
2023-04-06T20:22:56.593Z,9.20
2023-04-06T20:25:23.636Z,7.28
2023-04-06T20:27:53.220Z,7.43
2023-04-06T20:30:20.190Z,6.40
2023-04-06T20:32:47.133Z,6.35
2023-04-06T20:35:14.072Z,7.72
2023-04-06T20:37:41.916Z,6.20
2023-04-06T20:40:10.088Z,5.45
2023-04-06T20:42:37.259Z,6.97
2023-04-06T20:45:05.503Z,5.80
2023-04-06T20:47:32.578Z,6.30
2023-04-06T20:50:00.497Z,5.88
2023-04-06T20:52:27.812Z,6.32
2023-04-06T20:54:55.056Z,8.40
2023-04-06T20:57:23.224Z,7.43
2023-04-06T20:59:50.728Z,6.78
2023-04-06T21:02:17.973Z,7.80
2023-04-06T21:04:45.520Z,7.35
2023-04-06T21:07:12.597Z,8.82
2023-04-06T21:09:41.331Z,7.57
2023-04-06T21:12:08.829Z,9.45
2023-04-06T21:14:36.654Z,9.05
2023-04-06T21:17:04.196Z,7.55
2023-04-06T21:19:31.216Z,10.57
2023-04-06T21:21:58.282Z,8.25
2023-04-06T21:24:25.944Z,7.88
2023-04-06T21:26:53.060Z,10.90
2023-04-06T21:29:20.314Z,16.00
2023-04-06T21:31:53.305Z,13.93
2023-04-06T21:36:47.858Z,8.20
2023-04-06T21:39:14.798Z,10.75
2023-04-06T21:41:41.691Z,10.43
2023-04-06T21:44:08.647Z,10.27
2023-04-06T21:46:35.651Z,12.95
2023-04-06T21:49:02.591Z,10.73
2023-04-06T21:51:29.516Z,12.95
2023-04-06T21:53:56.541Z,10.40
2023-04-06T21:56:25.655Z,9.60
2023-04-06T21:58:53.667Z,11.25
2023-04-06T22:01:21.293Z,9.90
2023-04-06T22:03:48.818Z,8.50
2023-04-06T22:06:16.046Z,8.48
2023-04-06T22:08:47.614Z,8.30
2023-04-06T22:11:14.706Z,10.60
2023-04-06T22:13:41.635Z,7.75
2023-04-06T22:16:08.726Z,9.85
2023-04-06T22:18:38.674Z,8.38
2023-04-06T22:21:07.038Z,8.70
2023-04-06T22:23:42.199Z,11.38
2023-04-06T22:26:11.446Z,11.38
2023-04-06T22:28:38.606Z,11.93
2023-04-06T22:31:05.699Z,10.15
2023-04-06T22:33:32.643Z,9.65
2023-04-06T22:35:59.824Z,10.23
2023-04-06T22:38:27.414Z,9.93
2023-04-06T22:40:54.346Z,8.60
2023-04-06T22:43:21.244Z,9.20
2023-04-06T22:45:48.149Z,7.53
2023-04-06T22:48:15.684Z,8.35
2023-04-06T22:50:42.643Z,8.65
2023-04-06T22:53:09.504Z,11.52
2023-04-06T22:55:39.988Z,10.07
2023-04-06T22:58:07.262Z,8.50
2023-04-06T23:00:34.210Z,11.35
2023-04-06T23:03:01.687Z,11.88
2023-04-06T23:05:28.855Z,10.15
2023-04-06T23:07:55.748Z,9.07
2023-04-06T23:10:22.689Z,8.68
2023-04-06T23:12:49.621Z,9.48
2023-04-06T23:15:16.902Z,9.25
2023-04-06T23:17:43.896Z,9.55
2023-04-06T23:20:10.834Z,8.88
2023-04-06T23:22:38.492Z,9.50
2023-04-06T23:25:07.635Z,9.35
2023-04-06T23:27:34.506Z,12.25
2023-04-06T23:30:01.361Z,10.57
2023-04-06T23:32:28.299Z,11.38
2023-04-06T23:34:55.334Z,8.93
2023-04-06T23:37:22.226Z,11.20
2023-04-06T23:39:52.230Z,11.88
2023-04-06T23:42:19.252Z,10.85
2023-04-06T23:44:46.184Z,12.35
2023-04-06T23:47:13.057Z,10.25
2023-04-06T23:49:40.052Z,13.95
2023-04-06T23:52:07.124Z,9.55
2023-04-06T23:54:34.009Z,9.63
2023-04-06T23:57:01.369Z,9.30
2023-04-06T23:59:28.358Z,9.77
